Wong Chuk Hang, Hong Kong

7:57 AM CST on October 25, 2014 (GMT +0800)
Braemar Hill | Change Station
CLOSE
Current Station
Personal Weather Station
Location: Hong Kong, SAR
Elevation: 561 ft
Nearby Weather Stations

Elev 561 ft 22.29 °N, 114.20 °E | Updated 1 second ago

Partly Cloudy
Partly Cloudy
73.4 °F
Feels Like 72 °F
N
6.0
Wind Variable Wind from North
Gusts 12.0 mph

Today
High -- | Low -- °F
--% Chance of Precip.
Yesterday
High -- | Low -- °F
Precip. -- in
6:23 AM 5:50 PM
New Moon, 1% visible
Pressure 30.01 in
Visibility 6.2 miles
Clouds Few 2000 ft
Heat Index 72 °F
Dew Point 70 °F
Humidity 88%
Rainfall 0.00 in
Snow Depth Not available.
UV 1 out of 12
Pollen Not available.
Air Quality Not available.
Flu Activity Not available.
METAR VHHH 242330Z 09009KT 9999 FEW020 26/20 Q1016 NOSIG

More Conditions Fewer Conditions

Pressure 30.01 in
Visibility 6.2 miles
Clouds Few 2000 ft
Heat Index 72 °F
Dew Point 70 °F
Humidity 88%
Rainfall 0.00 in
Snow Depth Not available.
UV 1 out of 12
Pollen Not available.
Air Quality Not available.
Flu Activity Not available.
METAR VHHH 242330Z 09009KT 9999 FEW020 26/20 Q1016 NOSIG

More Conditions Fewer Conditions

10-Day Weather Forecast

Almanac

Astronomy

Oct. 25, 2014 Rise Set
Actual Time 6:23 AM CST 5:50 PM CST
Civil Twilight 6:00 AM CST 6:13 PM CST
Nautical Twilight 5:34 AM CST 6:39 PM CST
Astronomical Twilight 5:08 AM CST 7:06 PM CST
Moon 7:22 AM CST (10/25) 6:56 PM CST (10/25)
Length of Visible Light 12h 12m
Length of Day
11h 27m
Tomorrow will be 1m 11s shorter.
New Moon, 1% of the Moon is Illuminated
Oct 24
New Moon
Oct 30
First Quarter
Nov 6
Full
Nov 14
Last Quarter
Nov 22
New

Yesterday's Extremes

Country Highs Country Lows

Community

WunderPhotos

Upload Photos

1,764,713 photos uploaded!

Nearby

Snow Depth

Not available.

Earthquake Activity

City Distance Mag. Time & Date
No recent earthquake activity has been reported nearby.
Minimum magnitude displayed is 2.5.

Coastal Water Temperatures

Place Temperature
No Stations Reporting

Nearby Weather Stations